<?xml version="1.0" encoding="UTF-8" standalone="no" ?>
<gpx xmlns="http://www.topografix.com/GPX/1/1" xmlns:xsi="http://www.w3.org/2001/XMLSchema-instance" xsi:schemaLocation="http://www.topografix.com/GPX/1/1 http://www.topografix.com/GPX/1/1/gpx.xsd" version="1.1" creator="VisuGPX - https://www.visugpx.com">
  <metadata>
    <name>Monts d'Ardèche - Jour 1 - De Vals-les-Bains à Saint-Andéol-de-Vals</name>
  </metadata>
  <trk>
    <name><![CDATA[Monts d'Ardèche - Jour 1 - De Vals-les-Bains à Saint-Andéol-de-Vals]]></name>
    <trkseg>
      <trkpt lat="44.66877" lon="4.36222">
        <ele>268.565066</ele>
        <time>2022-04-05T09:06:36.678Z</time>
      </trkpt>
      <trkpt lat="44.66869" lon="4.362">
        <ele>268.565066</ele>
        <time>2022-04-05T09:06:55.339Z</time>
      </trkpt>
      <trkpt lat="44.66897" lon="4.3617">
        <ele>268.565066</ele>
        <time>2022-04-05T09:07:34.017Z</time>
      </trkpt>
      <trkpt lat="44.66914" lon="4.3616">
        <ele>268.565066</ele>
        <time>2022-04-05T09:07:55.111Z</time>
      </trkpt>
      <trkpt lat="44.66921" lon="4.36149">
        <ele>268.565066</ele>
        <time>2022-04-05T09:08:08.499Z</time>
      </trkpt>
      <trkpt lat="44.66932" lon="4.36136">
        <ele>268.928024</ele>
        <time>2022-04-05T09:08:25.411Z</time>
      </trkpt>
      <trkpt lat="44.66919" lon="4.36128">
        <ele>269.833072</ele>
        <time>2022-04-05T09:08:44.568Z</time>
      </trkpt>
      <trkpt lat="44.66892" lon="4.36128">
        <ele>271.519471</ele>
        <time>2022-04-05T09:09:17.966Z</time>
      </trkpt>
      <trkpt lat="44.66854" lon="4.36135">
        <ele>273.916779</ele>
        <time>2022-04-05T09:10:07.152Z</time>
      </trkpt>
      <trkpt lat="44.66826" lon="4.36152">
        <ele>275.858698</ele>
        <time>2022-04-05T09:10:43.142Z</time>
      </trkpt>
      <trkpt lat="44.66806" lon="4.36179">
        <ele>277.594502</ele>
        <time>2022-04-05T09:11:16.555Z</time>
      </trkpt>
      <trkpt lat="44.66804" lon="4.36124">
        <ele>280.048063</ele>
        <time>2022-04-05T09:12:01.679Z</time>
      </trkpt>
      <trkpt lat="44.66814" lon="4.36083">
        <ele>282.012181</ele>
        <time>2022-04-05T09:12:38.486Z</time>
      </trkpt>
      <trkpt lat="44.66836" lon="4.36066">
        <ele>283.582315</ele>
        <time>2022-04-05T09:13:09.282Z</time>
      </trkpt>
      <trkpt lat="44.66857" lon="4.36061">
        <ele>284.946514</ele>
        <time>2022-04-05T09:13:34.743Z</time>
      </trkpt>
      <trkpt lat="44.66899" lon="4.36045">
        <ele>287.718507</ele>
        <time>2022-04-05T09:14:30.097Z</time>
      </trkpt>
      <trkpt lat="44.66911" lon="4.36034">
        <ele>288.657967</ele>
        <time>2022-04-05T09:14:47.917Z</time>
      </trkpt>
      <trkpt lat="44.66916" lon="4.36016">
        <ele>289.510842</ele>
        <time>2022-04-05T09:15:03.687Z</time>
      </trkpt>
      <trkpt lat="44.66918" lon="4.35996">
        <ele>290.420995</ele>
        <time>2022-04-05T09:15:21.667Z</time>
      </trkpt>
      <trkpt lat="44.66925" lon="4.35992">
        <ele>290.917786</ele>
        <time>2022-04-05T09:15:30.148Z</time>
      </trkpt>
      <trkpt lat="44.6694" lon="4.35989">
        <ele>291.941676</ele>
        <time>2022-04-05T09:15:47.226Z</time>
      </trkpt>
      <trkpt lat="44.66995" lon="4.36">
        <ele>296.171437</ele>
        <time>2022-04-05T09:16:54.917Z</time>
      </trkpt>
      <trkpt lat="44.67006" lon="4.35997">
        <ele>297.060805</ele>
        <time>2022-04-05T09:17:10.032Z</time>
      </trkpt>
      <trkpt lat="44.67025" lon="4.35969">
        <ele>299.149374</ele>
        <time>2022-04-05T09:17:45.534Z</time>
      </trkpt>
      <trkpt lat="44.6706" lon="4.35891">
        <ele>304.225067</ele>
        <time>2022-04-05T09:19:11.179Z</time>
      </trkpt>
      <trkpt lat="44.6706" lon="4.35881">
        <ele>304.749393</ele>
        <time>2022-04-05T09:19:19.898Z</time>
      </trkpt>
      <trkpt lat="44.67031" lon="4.35846">
        <ele>307.522439</ele>
        <time>2022-04-05T09:20:08.616Z</time>
      </trkpt>
      <trkpt lat="44.6702" lon="4.35778">
        <ele>311.099795</ele>
        <time>2022-04-05T09:21:10.577Z</time>
      </trkpt>
      <trkpt lat="44.67008" lon="4.35775">
        <ele>312.008613</ele>
        <time>2022-04-05T09:21:26.395Z</time>
      </trkpt>
      <trkpt lat="44.66983" lon="4.35799">
        <ele>314.167313</ele>
        <time>2022-04-05T09:22:03.297Z</time>
      </trkpt>
      <trkpt lat="44.66959" lon="4.35798">
        <ele>315.854667</ele>
        <time>2022-04-05T09:22:31.823Z</time>
      </trkpt>
      <trkpt lat="44.66976" lon="4.35793">
        <ele>317.045059</ele>
        <time>2022-04-05T09:22:51.304Z</time>
      </trkpt>
      <trkpt lat="44.66994" lon="4.35773">
        <ele>318.91592</ele>
        <time>2022-04-05T09:23:19.413Z</time>
      </trkpt>
      <trkpt lat="44.66999" lon="4.35752">
        <ele>320.35928</ele>
        <time>2022-04-05T09:23:39.786Z</time>
      </trkpt>
      <trkpt lat="44.67001" lon="4.35675">
        <ele>325.521721</ele>
        <time>2022-04-05T09:24:47.051Z</time>
      </trkpt>
      <trkpt lat="44.67017" lon="4.35692">
        <ele>327.426975</ele>
        <time>2022-04-05T09:25:18.172Z</time>
      </trkpt>
      <trkpt lat="44.67033" lon="4.35695">
        <ele>328.954057</ele>
        <time>2022-04-05T09:25:39.519Z</time>
      </trkpt>
      <trkpt lat="44.67021" lon="4.35683">
        <ele>330.378454</ele>
        <time>2022-04-05T09:26:05.413Z</time>
      </trkpt>
      <trkpt lat="44.67017" lon="4.35671">
        <ele>331.209752</ele>
        <time>2022-04-05T09:26:16.470Z</time>
      </trkpt>
      <trkpt lat="44.67019" lon="4.35666">
        <ele>331.571376</ele>
        <time>2022-04-05T09:26:21.214Z</time>
      </trkpt>
      <trkpt lat="44.67036" lon="4.3567">
        <ele>333.210901</ele>
        <time>2022-04-05T09:26:43.974Z</time>
      </trkpt>
      <trkpt lat="44.6704" lon="4.35662">
        <ele>333.842293</ele>
        <time>2022-04-05T09:26:57.531Z</time>
      </trkpt>
      <trkpt lat="44.67062" lon="4.35648">
        <ele>336.453026</ele>
        <time>2022-04-05T09:27:28.877Z</time>
      </trkpt>
      <trkpt lat="44.67097" lon="4.35646">
        <ele>340.67357</ele>
        <time>2022-04-05T09:28:18.812Z</time>
      </trkpt>
      <trkpt lat="44.67096" lon="4.35628">
        <ele>342.170246</ele>
        <time>2022-04-05T09:28:41.632Z</time>
      </trkpt>
      <trkpt lat="44.67096" lon="4.35625">
        <ele>342.424461</ele>
        <time>2022-04-05T09:28:44.193Z</time>
      </trkpt>
      <trkpt lat="44.67092" lon="4.35588">
        <ele>345.58062</ele>
        <time>2022-04-05T09:29:19.057Z</time>
      </trkpt>
      <trkpt lat="44.67093" lon="4.35581">
        <ele>346.220196</ele>
        <time>2022-04-05T09:29:30.371Z</time>
      </trkpt>
      <trkpt lat="44.67098" lon="4.35581">
        <ele>346.867308</ele>
        <time>2022-04-05T09:29:38.791Z</time>
      </trkpt>
      <trkpt lat="44.67102" lon="4.35561">
        <ele>348.648718</ele>
        <time>2022-04-05T09:29:58.934Z</time>
      </trkpt>
      <trkpt lat="44.67097" lon="4.35542">
        <ele>350.376036</ele>
        <time>2022-04-05T09:30:22.996Z</time>
      </trkpt>
      <trkpt lat="44.67094" lon="4.35465">
        <ele>356.907754</ele>
        <time>2022-04-05T09:31:43.134Z</time>
      </trkpt>
      <trkpt lat="44.67103" lon="4.3544">
        <ele>358.696967</ele>
        <time>2022-04-05T09:32:11.253Z</time>
      </trkpt>
      <trkpt lat="44.67105" lon="4.35397">
        <ele>361.524503</ele>
        <time>2022-04-05T09:32:51.433Z</time>
      </trkpt>
      <trkpt lat="44.67123" lon="4.35331">
        <ele>366.16444</ele>
        <time>2022-04-05T09:33:55.534Z</time>
      </trkpt>
      <trkpt lat="44.67125" lon="4.35373">
        <ele>368.954977</ele>
        <time>2022-04-05T09:34:32.550Z</time>
      </trkpt>
      <trkpt lat="44.67141" lon="4.35339">
        <ele>371.629666</ele>
        <time>2022-04-05T09:35:08.247Z</time>
      </trkpt>
      <trkpt lat="44.67152" lon="4.3539">
        <ele>377.45102</ele>
        <time>2022-04-05T09:35:57.840Z</time>
      </trkpt>
      <trkpt lat="44.67168" lon="4.35343">
        <ele>385.031583</ele>
        <time>2022-04-05T09:36:51.861Z</time>
      </trkpt>
      <trkpt lat="44.67178" lon="4.35391">
        <ele>392.171783</ele>
        <time>2022-04-05T09:37:54.504Z</time>
      </trkpt>
      <trkpt lat="44.67178" lon="4.35391">
        <ele>392.171783</ele>
        <time>2022-04-05T09:37:54.623Z</time>
      </trkpt>
      <trkpt lat="44.67188" lon="4.35419">
        <ele>396.721974</ele>
        <time>2022-04-05T09:38:42.535Z</time>
      </trkpt>
      <trkpt lat="44.67192" lon="4.3542">
        <ele>397.576002</ele>
        <time>2022-04-05T09:38:52.195Z</time>
      </trkpt>
      <trkpt lat="44.67204" lon="4.35377">
        <ele>404.236288</ele>
        <time>2022-04-05T09:40:12.100Z</time>
      </trkpt>
      <trkpt lat="44.67234" lon="4.35333">
        <ele>415.275608</ele>
        <time>2022-04-05T09:42:05.652Z</time>
      </trkpt>
      <trkpt lat="44.67324" lon="4.35304">
        <ele>446.010877</ele>
        <time>2022-04-05T09:46:31.438Z</time>
      </trkpt>
      <trkpt lat="44.67366" lon="4.35314">
        <ele>460.066941</ele>
        <time>2022-04-05T09:48:32.904Z</time>
      </trkpt>
      <trkpt lat="44.6739" lon="4.3533">
        <ele>468.918128</ele>
        <time>2022-04-05T09:49:45.834Z</time>
      </trkpt>
      <trkpt lat="44.67424" lon="4.35359">
        <ele>475.644321</ele>
        <time>2022-04-05T09:51:23.422Z</time>
      </trkpt>
      <trkpt lat="44.67438" lon="4.35379">
        <ele>478.969084</ele>
        <time>2022-04-05T09:52:01.100Z</time>
      </trkpt>
      <trkpt lat="44.67444" lon="4.35406">
        <ele>482.259091</ele>
        <time>2022-04-05T09:52:43.166Z</time>
      </trkpt>
      <trkpt lat="44.67471" lon="4.35425">
        <ele>487.294973</ele>
        <time>2022-04-05T09:53:26.519Z</time>
      </trkpt>
      <trkpt lat="44.67483" lon="4.35425">
        <ele>489.203745</ele>
        <time>2022-04-05T09:53:41.594Z</time>
      </trkpt>
      <trkpt lat="44.67522" lon="4.35409">
        <ele>496.000525</ele>
        <time>2022-04-05T09:54:33.586Z</time>
      </trkpt>
      <trkpt lat="44.67561" lon="4.35414">
        <ele>500.038191</ele>
        <time>2022-04-05T09:55:18.838Z</time>
      </trkpt>
      <trkpt lat="44.67582" lon="4.35409">
        <ele>501.142133</ele>
        <time>2022-04-05T09:55:47.640Z</time>
      </trkpt>
      <trkpt lat="44.67598" lon="4.35391">
        <ele>502.194306</ele>
        <time>2022-04-05T09:56:09.401Z</time>
      </trkpt>
      <trkpt lat="44.67597" lon="4.35409">
        <ele>502.866483</ele>
        <time>2022-04-05T09:56:24.934Z</time>
      </trkpt>
      <trkpt lat="44.67622" lon="4.35432">
        <ele>504.368214</ele>
        <time>2022-04-05T09:56:57.833Z</time>
      </trkpt>
      <trkpt lat="44.67651" lon="4.35434">
        <ele>505.867255</ele>
        <time>2022-04-05T09:57:30.532Z</time>
      </trkpt>
      <trkpt lat="44.67679" lon="4.35426">
        <ele>507.34153</ele>
        <time>2022-04-05T09:58:03.602Z</time>
      </trkpt>
      <trkpt lat="44.67691" lon="4.35406">
        <ele>508.295812</ele>
        <time>2022-04-05T09:58:26.386Z</time>
      </trkpt>
      <trkpt lat="44.67726" lon="4.35395">
        <ele>509.780168</ele>
        <time>2022-04-05T09:59:08.998Z</time>
      </trkpt>
      <trkpt lat="44.67752" lon="4.35368">
        <ele>511.111936</ele>
        <time>2022-04-05T09:59:48.575Z</time>
      </trkpt>
      <trkpt lat="44.67768" lon="4.35336">
        <ele>512.248571</ele>
        <time>2022-04-05T10:00:22.213Z</time>
      </trkpt>
      <trkpt lat="44.67786" lon="4.35313">
        <ele>513.265705</ele>
        <time>2022-04-05T10:00:52.555Z</time>
      </trkpt>
      <trkpt lat="44.67791" lon="4.35275">
        <ele>514.404491</ele>
        <time>2022-04-05T10:01:26.814Z</time>
      </trkpt>
      <trkpt lat="44.6788" lon="4.35142">
        <ele>509.271362</ele>
        <time>2022-04-05T10:03:44.299Z</time>
      </trkpt>
      <trkpt lat="44.67887" lon="4.35112">
        <ele>507.794959</ele>
        <time>2022-04-05T10:04:11.096Z</time>
      </trkpt>
      <trkpt lat="44.6803" lon="4.35041">
        <ele>491.422622</ele>
        <time>2022-04-05T10:07:20.134Z</time>
      </trkpt>
      <trkpt lat="44.6806" lon="4.34999">
        <ele>485.705093</ele>
        <time>2022-04-05T10:08:15.363Z</time>
      </trkpt>
      <trkpt lat="44.68099" lon="4.34969">
        <ele>479.746014</ele>
        <time>2022-04-05T10:09:11.208Z</time>
      </trkpt>
      <trkpt lat="44.68102" lon="4.34941">
        <ele>476.964158</ele>
        <time>2022-04-05T10:09:36.718Z</time>
      </trkpt>
      <trkpt lat="44.68098" lon="4.34921">
        <ele>474.905029</ele>
        <time>2022-04-05T10:09:55.200Z</time>
      </trkpt>
      <trkpt lat="44.68101" lon="4.34907">
        <ele>473.439973</ele>
        <time>2022-04-05T10:10:08.424Z</time>
      </trkpt>
      <trkpt lat="44.68114" lon="4.34879">
        <ele>470.076589</ele>
        <time>2022-04-05T10:10:38.492Z</time>
      </trkpt>
      <trkpt lat="44.68132" lon="4.34859">
        <ele>466.803458</ele>
        <time>2022-04-05T10:11:07.434Z</time>
      </trkpt>
      <trkpt lat="44.68153" lon="4.34796">
        <ele>459.942101</ele>
        <time>2022-04-05T10:12:07.834Z</time>
      </trkpt>
      <trkpt lat="44.68171" lon="4.34775">
        <ele>456.618837</ele>
        <time>2022-04-05T10:12:37.207Z</time>
      </trkpt>
      <trkpt lat="44.68202" lon="4.34773">
        <ele>451.494908</ele>
        <time>2022-04-05T10:13:20.909Z</time>
      </trkpt>
      <trkpt lat="44.68247" lon="4.34795">
        <ele>442.459209</ele>
        <time>2022-04-05T10:14:31.179Z</time>
      </trkpt>
      <trkpt lat="44.68262" lon="4.34814">
        <ele>438.544288</ele>
        <time>2022-04-05T10:15:03.742Z</time>
      </trkpt>
      <trkpt lat="44.68287" lon="4.34826">
        <ele>433.456989</ele>
        <time>2022-04-05T10:15:42.200Z</time>
      </trkpt>
      <trkpt lat="44.68306" lon="4.34798">
        <ele>428.350317</ele>
        <time>2022-04-05T10:16:18.443Z</time>
      </trkpt>
      <trkpt lat="44.68306" lon="4.34798">
        <ele>428.350317</ele>
        <time>2022-04-05T10:16:18.519Z</time>
      </trkpt>
      <trkpt lat="44.68322" lon="4.3479">
        <ele>425.049483</ele>
        <time>2022-04-05T10:16:45.675Z</time>
      </trkpt>
      <trkpt lat="44.68336" lon="4.34833">
        <ele>418.837395</ele>
        <time>2022-04-05T10:17:31.588Z</time>
      </trkpt>
      <trkpt lat="44.68345" lon="4.34792">
        <ele>413.910295</ele>
        <time>2022-04-05T10:18:12.168Z</time>
      </trkpt>
      <trkpt lat="44.68358" lon="4.34831">
        <ele>408.912128</ele>
        <time>2022-04-05T10:18:52.761Z</time>
      </trkpt>
      <trkpt lat="44.68373" lon="4.34854">
        <ele>405.342041</ele>
        <time>2022-04-05T10:19:22.382Z</time>
      </trkpt>
      <trkpt lat="44.68378" lon="4.3479">
        <ele>397.991577</ele>
        <time>2022-04-05T10:20:22.033Z</time>
      </trkpt>
      <trkpt lat="44.68378" lon="4.3479">
        <ele>397.991577</ele>
        <time>2022-04-05T10:20:23.109Z</time>
      </trkpt>
      <trkpt lat="44.6841" lon="4.34732">
        <ele>389.760105</ele>
        <time>2022-04-05T10:21:27.383Z</time>
      </trkpt>
      <trkpt lat="44.6843" lon="4.34733">
        <ele>387.008159</ele>
        <time>2022-04-05T10:21:53.748Z</time>
      </trkpt>
      <trkpt lat="44.68465" lon="4.34716">
        <ele>382.115074</ele>
        <time>2022-04-05T10:22:39.124Z</time>
      </trkpt>
      <trkpt lat="44.68483" lon="4.34689">
        <ele>378.573579</ele>
        <time>2022-04-05T10:23:11.247Z</time>
      </trkpt>
      <trkpt lat="44.68523" lon="4.34697">
        <ele>373.112765</ele>
        <time>2022-04-05T10:24:03.285Z</time>
      </trkpt>
      <trkpt lat="44.68524" lon="4.34707">
        <ele>372.199096</ele>
        <time>2022-04-05T10:24:15.082Z</time>
      </trkpt>
      <trkpt lat="44.6852" lon="4.34706">
        <ele>371.617776</ele>
        <time>2022-04-05T10:24:19.978Z</time>
      </trkpt>
      <trkpt lat="44.685" lon="4.34723">
        <ele>368.438535</ele>
        <time>2022-04-05T10:24:50.265Z</time>
      </trkpt>
      <trkpt lat="44.68496" lon="4.34806">
        <ele>364.484069</ele>
        <time>2022-04-05T10:26:03.225Z</time>
      </trkpt>
      <trkpt lat="44.68508" lon="4.34868">
        <ele>362.333171</ele>
        <time>2022-04-05T10:26:54.946Z</time>
      </trkpt>
      <trkpt lat="44.68504" lon="4.34871">
        <ele>362.12688</ele>
        <time>2022-04-05T10:26:59.400Z</time>
      </trkpt>
      <trkpt lat="44.68519" lon="4.34915">
        <ele>360.497495</ele>
        <time>2022-04-05T10:27:38.042Z</time>
      </trkpt>
      <trkpt lat="44.68531" lon="4.34913">
        <ele>359.910178</ele>
        <time>2022-04-05T10:27:52.318Z</time>
      </trkpt>
      <trkpt lat="44.68542" lon="4.34933">
        <ele>359.082794</ele>
        <time>2022-04-05T10:28:11.143Z</time>
      </trkpt>
      <trkpt lat="44.68578" lon="4.34923">
        <ele>359.813954</ele>
        <time>2022-04-05T10:28:53.972Z</time>
      </trkpt>
      <trkpt lat="44.68585" lon="4.34926">
        <ele>360.440421</ele>
        <time>2022-04-05T10:29:02.053Z</time>
      </trkpt>
      <trkpt lat="44.68642" lon="4.34984">
        <ele>366.844515</ele>
        <time>2022-04-05T10:30:32.870Z</time>
      </trkpt>
      <trkpt lat="44.68645" lon="4.35003">
        <ele>368.122902</ele>
        <time>2022-04-05T10:30:53.461Z</time>
      </trkpt>
      <trkpt lat="44.6865" lon="4.35005">
        <ele>368.584803</ele>
        <time>2022-04-05T10:31:01.016Z</time>
      </trkpt>
      <trkpt lat="44.68663" lon="4.34991">
        <ele>370.079925</ele>
        <time>2022-04-05T10:31:25.719Z</time>
      </trkpt>
      <trkpt lat="44.68667" lon="4.34993">
        <ele>370.478706</ele>
        <time>2022-04-05T10:31:32.676Z</time>
      </trkpt>
      <trkpt lat="44.68664" lon="4.35052">
        <ele>374.311095</ele>
        <time>2022-04-05T10:32:31.331Z</time>
      </trkpt>
      <trkpt lat="44.68675" lon="4.35086">
        <ele>379.182806</ele>
        <time>2022-04-05T10:33:04.590Z</time>
      </trkpt>
      <trkpt lat="44.68678" lon="4.35059">
        <ele>382.935726</ele>
        <time>2022-04-05T10:33:32.434Z</time>
      </trkpt>
      <trkpt lat="44.68692" lon="4.35154">
        <ele>396.363601</ele>
        <time>2022-04-05T10:35:49.067Z</time>
      </trkpt>
      <trkpt lat="44.68692" lon="4.35154">
        <ele>396.363601</ele>
        <time>2022-04-05T10:35:49.229Z</time>
      </trkpt>
      <trkpt lat="44.68704" lon="4.35133">
        <ele>400.160157</ele>
        <time>2022-04-05T10:36:28.902Z</time>
      </trkpt>
      <trkpt lat="44.68709" lon="4.35134">
        <ele>401.047358</ele>
        <time>2022-04-05T10:36:37.427Z</time>
      </trkpt>
      <trkpt lat="44.68708" lon="4.35163">
        <ele>405.093859</ele>
        <time>2022-04-05T10:37:29.652Z</time>
      </trkpt>
      <trkpt lat="44.68723" lon="4.35151">
        <ele>408.405243</ele>
        <time>2022-04-05T10:38:05.130Z</time>
      </trkpt>
      <trkpt lat="44.68721" lon="4.3517">
        <ele>411.429911</ele>
        <time>2022-04-05T10:38:39.703Z</time>
      </trkpt>
      <trkpt lat="44.68734" lon="4.3515">
        <ele>416.162457</ele>
        <time>2022-04-05T10:39:20.184Z</time>
      </trkpt>
      <trkpt lat="44.68735" lon="4.35178">
        <ele>421.045354</ele>
        <time>2022-04-05T10:40:12.675Z</time>
      </trkpt>
      <trkpt lat="44.68729" lon="4.35199">
        <ele>425.016439</ele>
        <time>2022-04-05T10:40:45.222Z</time>
      </trkpt>
      <trkpt lat="44.68727" lon="4.3523">
        <ele>430.570149</ele>
        <time>2022-04-05T10:41:43.489Z</time>
      </trkpt>
      <trkpt lat="44.68727" lon="4.3523">
        <ele>430.594713</ele>
        <time>2022-04-05T10:41:44.019Z</time>
      </trkpt>
      <trkpt lat="44.68727" lon="4.353">
        <ele>442.837062</ele>
        <time>2022-04-05T10:43:37.418Z</time>
      </trkpt>
      <trkpt lat="44.68734" lon="4.35366">
        <ele>454.104899</ele>
        <time>2022-04-05T10:45:22.807Z</time>
      </trkpt>
      <trkpt lat="44.68753" lon="4.35445">
        <ele>463.702251</ele>
        <time>2022-04-05T10:46:59.639Z</time>
      </trkpt>
      <trkpt lat="44.68765" lon="4.35448">
        <ele>465.627792</ele>
        <time>2022-04-05T10:47:18.501Z</time>
      </trkpt>
      <trkpt lat="44.68767" lon="4.35377">
        <ele>473.766629</ele>
        <time>2022-04-05T10:48:39.518Z</time>
      </trkpt>
      <trkpt lat="44.68785" lon="4.35363">
        <ele>476.970837</ele>
        <time>2022-04-05T10:49:13.694Z</time>
      </trkpt>
      <trkpt lat="44.68787" lon="4.35459">
        <ele>487.215821</ele>
        <time>2022-04-05T10:51:04.048Z</time>
      </trkpt>
      <trkpt lat="44.68789" lon="4.35461">
        <ele>487.652036</ele>
        <time>2022-04-05T10:51:09.409Z</time>
      </trkpt>
      <trkpt lat="44.68804" lon="4.35415">
        <ele>492.746284</ele>
        <time>2022-04-05T10:52:04.847Z</time>
      </trkpt>
      <trkpt lat="44.68804" lon="4.35463">
        <ele>497.567159</ele>
        <time>2022-04-05T10:53:01.689Z</time>
      </trkpt>
      <trkpt lat="44.68794" lon="4.35508">
        <ele>502.287636</ele>
        <time>2022-04-05T10:53:56.576Z</time>
      </trkpt>
      <trkpt lat="44.68754" lon="4.35538">
        <ele>508.18643</ele>
        <time>2022-04-05T10:55:05.071Z</time>
      </trkpt>
      <trkpt lat="44.68731" lon="4.35541">
        <ele>510.194703</ele>
        <time>2022-04-05T10:55:38.028Z</time>
      </trkpt>
      <trkpt lat="44.68708" lon="4.35554">
        <ele>512.405202</ele>
        <time>2022-04-05T10:56:12.174Z</time>
      </trkpt>
      <trkpt lat="44.68668" lon="4.35564">
        <ele>515.850708</ele>
        <time>2022-04-05T10:57:01.318Z</time>
      </trkpt>
      <trkpt lat="44.68658" lon="4.35575">
        <ele>516.961167</ele>
        <time>2022-04-05T10:57:15.756Z</time>
      </trkpt>
      <trkpt lat="44.68644" lon="4.35658">
        <ele>522.177441</ele>
        <time>2022-04-05T10:58:30.721Z</time>
      </trkpt>
      <trkpt lat="44.68643" lon="4.35721">
        <ele>525.495926</ele>
        <time>2022-04-05T10:59:28.245Z</time>
      </trkpt>
      <trkpt lat="44.68621" lon="4.35796">
        <ele>529.524991</ele>
        <time>2022-04-05T11:00:44.544Z</time>
      </trkpt>
      <trkpt lat="44.68577" lon="4.3586">
        <ele>533.954624</ele>
        <time>2022-04-05T11:02:02.088Z</time>
      </trkpt>
      <trkpt lat="44.6856" lon="4.35875">
        <ele>535.327849</ele>
        <time>2022-04-05T11:02:26.126Z</time>
      </trkpt>
      <trkpt lat="44.68522" lon="4.35935">
        <ele>534.753484</ele>
        <time>2022-04-05T11:03:28.726Z</time>
      </trkpt>
      <trkpt lat="44.68502" lon="4.35977">
        <ele>534.102592</ele>
        <time>2022-04-05T11:04:05.569Z</time>
      </trkpt>
      <trkpt lat="44.68486" lon="4.35988">
        <ele>533.78745</ele>
        <time>2022-04-05T11:04:23.162Z</time>
      </trkpt>
      <trkpt lat="44.68484" lon="4.36004">
        <ele>533.580642</ele>
        <time>2022-04-05T11:04:36.484Z</time>
      </trkpt>
      <trkpt lat="44.68463" lon="4.36025">
        <ele>533.124841</ele>
        <time>2022-04-05T11:05:02.973Z</time>
      </trkpt>
      <trkpt lat="44.68458" lon="4.36037">
        <ele>532.952448</ele>
        <time>2022-04-05T11:05:14.530Z</time>
      </trkpt>
      <trkpt lat="44.68406" lon="4.36075">
        <ele>526.171976</ele>
        <time>2022-04-05T11:06:22.129Z</time>
      </trkpt>
      <trkpt lat="44.6837" lon="4.36124">
        <ele>516.102228</ele>
        <time>2022-04-05T11:07:28.336Z</time>
      </trkpt>
      <trkpt lat="44.6836" lon="4.36131">
        <ele>513.745898</ele>
        <time>2022-04-05T11:07:47.601Z</time>
      </trkpt>
      <trkpt lat="44.68282" lon="4.36154">
        <ele>497.663248</ele>
        <time>2022-04-05T11:10:03.159Z</time>
      </trkpt>
      <trkpt lat="44.68266" lon="4.36181">
        <ele>490.790044</ele>
        <time>2022-04-05T11:10:45.990Z</time>
      </trkpt>
      <trkpt lat="44.6825" lon="4.36195">
        <ele>484.855017</ele>
        <time>2022-04-05T11:11:20.418Z</time>
      </trkpt>
      <trkpt lat="44.68235" lon="4.36213">
        <ele>478.520841</ele>
        <time>2022-04-05T11:12:01.882Z</time>
      </trkpt>
      <trkpt lat="44.68232" lon="4.36233">
        <ele>474.097032</ele>
        <time>2022-04-05T11:12:26.483Z</time>
      </trkpt>
      <trkpt lat="44.68198" lon="4.36305">
        <ele>454.852554</ele>
        <time>2022-04-05T11:14:29.798Z</time>
      </trkpt>
      <trkpt lat="44.68181" lon="4.36266">
        <ele>444.514484</ele>
        <time>2022-04-05T11:15:35.721Z</time>
      </trkpt>
      <trkpt lat="44.68169" lon="4.36301">
        <ele>437.261395</ele>
        <time>2022-04-05T11:16:31.797Z</time>
      </trkpt>
      <trkpt lat="44.68166" lon="4.3635">
        <ele>430.37536</ele>
        <time>2022-04-05T11:17:28.005Z</time>
      </trkpt>
      <trkpt lat="44.68154" lon="4.36399">
        <ele>423.199732</ele>
        <time>2022-04-05T11:18:18.710Z</time>
      </trkpt>
      <trkpt lat="44.68141" lon="4.36369">
        <ele>418.241389</ele>
        <time>2022-04-05T11:18:50.829Z</time>
      </trkpt>
      <trkpt lat="44.68127" lon="4.36441">
        <ele>407.949528</ele>
        <time>2022-04-05T11:19:59.187Z</time>
      </trkpt>
      <trkpt lat="44.68112" lon="4.36423">
        <ele>404.17514</ele>
        <time>2022-04-05T11:20:23.433Z</time>
      </trkpt>
      <trkpt lat="44.68093" lon="4.36383">
        <ele>396.65092</ele>
        <time>2022-04-05T11:21:06.798Z</time>
      </trkpt>
      <trkpt lat="44.68074" lon="4.36369">
        <ele>391.988937</ele>
        <time>2022-04-05T11:21:33.374Z</time>
      </trkpt>
      <trkpt lat="44.68059" lon="4.3634">
        <ele>386.534565</ele>
        <time>2022-04-05T11:22:04.408Z</time>
      </trkpt>
      <trkpt lat="44.68038" lon="4.36336">
        <ele>381.783656</ele>
        <time>2022-04-05T11:22:38.728Z</time>
      </trkpt>
      <trkpt lat="44.68015" lon="4.36357">
        <ele>375.923039</ele>
        <time>2022-04-05T11:23:29.862Z</time>
      </trkpt>
      <trkpt lat="44.68011" lon="4.36327">
        <ele>371.106776</ele>
        <time>2022-04-05T11:24:13.690Z</time>
      </trkpt>
      <trkpt lat="44.67989" lon="4.36394">
        <ele>358.067967</ele>
        <time>2022-04-05T11:25:48.410Z</time>
      </trkpt>
      <trkpt lat="44.67972" lon="4.36429">
        <ele>349.45666</ele>
        <time>2022-04-05T11:26:42.118Z</time>
      </trkpt>
      <trkpt lat="44.67948" lon="4.36426">
        <ele>342.70535</ele>
        <time>2022-04-05T11:27:29.229Z</time>
      </trkpt>
      <trkpt lat="44.67939" lon="4.36444">
        <ele>338.380035</ele>
        <time>2022-04-05T11:27:53.914Z</time>
      </trkpt>
      <trkpt lat="44.67926" lon="4.36442">
        <ele>334.611133</ele>
        <time>2022-04-05T11:28:18.665Z</time>
      </trkpt>
      <trkpt lat="44.67923" lon="4.36447">
        <ele>333.175856</ele>
        <time>2022-04-05T11:28:28.164Z</time>
      </trkpt>
      <trkpt lat="44.67942" lon="4.36482">
        <ele>324.558198</ele>
        <time>2022-04-05T11:29:23.361Z</time>
      </trkpt>
      <trkpt lat="44.67914" lon="4.36479">
        <ele>316.77573</ele>
        <time>2022-04-05T11:30:10.775Z</time>
      </trkpt>
      <trkpt lat="44.67909" lon="4.36497">
        <ele>314.136064</ele>
        <time>2022-04-05T11:30:41.606Z</time>
      </trkpt>
      <trkpt lat="44.67832" lon="4.36451">
        <ele>305.551231</ele>
        <time>2022-04-05T11:32:30.129Z</time>
      </trkpt>
      <trkpt lat="44.67822" lon="4.3646">
        <ele>304.328469</ele>
        <time>2022-04-05T11:32:43.415Z</time>
      </trkpt>
      <trkpt lat="44.67812" lon="4.36459">
        <ele>303.315393</ele>
        <time>2022-04-05T11:32:55.952Z</time>
      </trkpt>
      <trkpt lat="44.67797" lon="4.3652">
        <ele>298.635085</ele>
        <time>2022-04-05T11:33:42.731Z</time>
      </trkpt>
      <trkpt lat="44.67794" lon="4.36533">
        <ele>297.658674</ele>
        <time>2022-04-05T11:33:53.341Z</time>
      </trkpt>
      <trkpt lat="44.67783" lon="4.3658">
        <ele>296.980986</ele>
        <time>2022-04-05T11:34:28.458Z</time>
      </trkpt>
      <trkpt lat="44.67773" lon="4.3662">
        <ele>297.648282</ele>
        <time>2022-04-05T11:34:59.138Z</time>
      </trkpt>
      <trkpt lat="44.67916" lon="4.36734">
        <ele>300.882334</ele>
        <time>2022-04-05T11:38:02.439Z</time>
      </trkpt>
      <trkpt lat="44.6796" lon="4.36761">
        <ele>301.447807</ele>
        <time>2022-04-05T11:38:51.502Z</time>
      </trkpt>
      <trkpt lat="44.68004" lon="4.36805">
        <ele>302.084362</ele>
        <time>2022-04-05T11:39:47.244Z</time>
      </trkpt>
      <trkpt lat="44.68058" lon="4.3687">
        <ele>302.73075</ele>
        <time>2022-04-05T11:40:57.901Z</time>
      </trkpt>
      <trkpt lat="44.68088" lon="4.36889">
        <ele>302.929051</ele>
        <time>2022-04-05T11:41:32.370Z</time>
      </trkpt>
      <trkpt lat="44.68125" lon="4.36893">
        <ele>303.142636</ele>
        <time>2022-04-05T11:42:10.205Z</time>
      </trkpt>
      <trkpt lat="44.68153" lon="4.36885">
        <ele>303.309536</ele>
        <time>2022-04-05T11:42:39.579Z</time>
      </trkpt>
      <trkpt lat="44.68232" lon="4.36841">
        <ele>304.484686</ele>
        <time>2022-04-05T11:44:06.070Z</time>
      </trkpt>
      <trkpt lat="44.68272" lon="4.36766">
        <ele>306.163569</ele>
        <time>2022-04-05T11:45:15.167Z</time>
      </trkpt>
      <trkpt lat="44.68343" lon="4.3668">
        <ele>309.880319</ele>
        <time>2022-04-05T11:47:02.512Z</time>
      </trkpt>
      <trkpt lat="44.68384" lon="4.36672">
        <ele>314.297669</ele>
        <time>2022-04-05T11:47:53.630Z</time>
      </trkpt>
      <trkpt lat="44.68399" lon="4.36678">
        <ele>316.101889</ele>
        <time>2022-04-05T11:48:15.587Z</time>
      </trkpt>
      <trkpt lat="44.68425" lon="4.36696">
        <ele>319.201236</ele>
        <time>2022-04-05T11:48:56.209Z</time>
      </trkpt>
      <trkpt lat="44.68476" lon="4.36748">
        <ele>326.055219</ele>
        <time>2022-04-05T11:50:38.484Z</time>
      </trkpt>
      <trkpt lat="44.685" lon="4.36768">
        <ele>329.341641</ele>
        <time>2022-04-05T11:51:23.479Z</time>
      </trkpt>
      <trkpt lat="44.68528" lon="4.36818">
        <ele>335.074103</ele>
        <time>2022-04-05T11:52:34.806Z</time>
      </trkpt>
      <trkpt lat="44.68546" lon="4.36854">
        <ele>338.989737</ele>
        <time>2022-04-05T11:53:25.066Z</time>
      </trkpt>
      <trkpt lat="44.68558" lon="4.36867">
        <ele>340.961374</ele>
        <time>2022-04-05T11:53:48.335Z</time>
      </trkpt>
      <trkpt lat="44.68594" lon="4.36877">
        <ele>345.516262</ele>
        <time>2022-04-05T11:54:41.360Z</time>
      </trkpt>
      <trkpt lat="44.68631" lon="4.369">
        <ele>350.581473</ele>
        <time>2022-04-05T11:55:36.948Z</time>
      </trkpt>
      <trkpt lat="44.68643" lon="4.3692">
        <ele>351.674339</ele>
        <time>2022-04-05T11:56:00.798Z</time>
      </trkpt>
      <trkpt lat="44.68654" lon="4.3697">
        <ele>353.913879</ele>
        <time>2022-04-05T11:56:47.355Z</time>
      </trkpt>
      <trkpt lat="44.68676" lon="4.37031">
        <ele>356.841481</ele>
        <time>2022-04-05T11:57:42.304Z</time>
      </trkpt>
      <trkpt lat="44.68682" lon="4.37029">
        <ele>357.215832</ele>
        <time>2022-04-05T11:57:49.322Z</time>
      </trkpt>
      <trkpt lat="44.68701" lon="4.36995">
        <ele>359.031017</ele>
        <time>2022-04-05T11:58:23.755Z</time>
      </trkpt>
      <trkpt lat="44.6871" lon="4.36996">
        <ele>359.570239</ele>
        <time>2022-04-05T11:58:33.805Z</time>
      </trkpt>
      <trkpt lat="44.68713" lon="4.37086">
        <ele>365.269</ele>
        <time>2022-04-05T11:59:50.052Z</time>
      </trkpt>
      <trkpt lat="44.68719" lon="4.37104">
        <ele>366.858918</ele>
        <time>2022-04-05T12:00:07.944Z</time>
      </trkpt>
      <trkpt lat="44.68729" lon="4.37106">
        <ele>367.953957</ele>
        <time>2022-04-05T12:00:20.512Z</time>
      </trkpt>
      <trkpt lat="44.68743" lon="4.37084">
        <ele>370.347253</ele>
        <time>2022-04-05T12:00:48.371Z</time>
      </trkpt>
      <trkpt lat="44.68748" lon="4.37083">
        <ele>370.877264</ele>
        <time>2022-04-05T12:00:54.808Z</time>
      </trkpt>
      <trkpt lat="44.68752" lon="4.37157">
        <ele>376.787188</ele>
        <time>2022-04-05T12:02:10.575Z</time>
      </trkpt>
      <trkpt lat="44.68735" lon="4.37268">
        <ele>390.139974</ele>
        <time>2022-04-05T12:04:32.696Z</time>
      </trkpt>
      <trkpt lat="44.68719" lon="4.37477">
        <ele>423.416967</ele>
        <time>2022-04-05T12:09:57.877Z</time>
      </trkpt>
      <trkpt lat="44.68726" lon="4.37597">
        <ele>445.754079</ele>
        <time>2022-04-05T12:13:25.789Z</time>
      </trkpt>
      <trkpt lat="44.68724" lon="4.37667">
        <ele>458.644464</ele>
        <time>2022-04-05T12:15:24.002Z</time>
      </trkpt>
      <trkpt lat="44.68727" lon="4.37683">
        <ele>461.767002</ele>
        <time>2022-04-05T12:15:52.427Z</time>
      </trkpt>
      <trkpt lat="44.68723" lon="4.37756">
        <ele>473.367225</ele>
        <time>2022-04-05T12:17:50.925Z</time>
      </trkpt>
      <trkpt lat="44.68729" lon="4.37788">
        <ele>477.794298</ele>
        <time>2022-04-05T12:18:37.322Z</time>
      </trkpt>
      <trkpt lat="44.68729" lon="4.37895">
        <ele>492.098344</ele>
        <time>2022-04-05T12:21:06.339Z</time>
      </trkpt>
      <trkpt lat="44.68732" lon="4.37901">
        <ele>493.111769</ele>
        <time>2022-04-05T12:21:18.583Z</time>
      </trkpt>
      <trkpt lat="44.68746" lon="4.37869">
        <ele>498.157344</ele>
        <time>2022-04-05T12:21:58.557Z</time>
      </trkpt>
      <trkpt lat="44.68752" lon="4.37948">
        <ele>505.103951</ele>
        <time>2022-04-05T12:23:17.007Z</time>
      </trkpt>
      <trkpt lat="44.68742" lon="4.3804">
        <ele>510.793845</ele>
        <time>2022-04-05T12:24:39.455Z</time>
      </trkpt>
      <trkpt lat="44.68745" lon="4.38041">
        <ele>511.059557</ele>
        <time>2022-04-05T12:24:43.129Z</time>
      </trkpt>
      <trkpt lat="44.68745" lon="4.38041">
        <ele>511.059557</ele>
        <time>2022-04-05T12:24:43.162Z</time>
      </trkpt>
      <trkpt lat="44.68754" lon="4.38018">
        <ele>512.62062</ele>
        <time>2022-04-05T12:25:02.982Z</time>
      </trkpt>
      <trkpt lat="44.68758" lon="4.38041">
        <ele>514.066858</ele>
        <time>2022-04-05T12:25:24.202Z</time>
      </trkpt>
      <trkpt lat="44.68775" lon="4.38014">
        <ele>516.28384</ele>
        <time>2022-04-05T12:25:54.564Z</time>
      </trkpt>
      <trkpt lat="44.68776" lon="4.38076">
        <ele>521.022737</ele>
        <time>2022-04-05T12:26:52.387Z</time>
      </trkpt>
      <trkpt lat="44.68781" lon="4.38076">
        <ele>521.622435</ele>
        <time>2022-04-05T12:26:58.411Z</time>
      </trkpt>
      <trkpt lat="44.68789" lon="4.38056">
        <ele>523.519062</ele>
        <time>2022-04-05T12:27:27.853Z</time>
      </trkpt>
      <trkpt lat="44.68803" lon="4.3804">
        <ele>525.700932</ele>
        <time>2022-04-05T12:27:50.486Z</time>
      </trkpt>
      <trkpt lat="44.68806" lon="4.38079">
        <ele>529.038491</ele>
        <time>2022-04-05T12:28:37.875Z</time>
      </trkpt>
      <trkpt lat="44.68827" lon="4.38035">
        <ele>533.488574</ele>
        <time>2022-04-05T12:29:34.659Z</time>
      </trkpt>
      <trkpt lat="44.68835" lon="4.38028">
        <ele>534.638157</ele>
        <time>2022-04-05T12:29:46.466Z</time>
      </trkpt>
      <trkpt lat="44.68847" lon="4.38027">
        <ele>535.956095</ele>
        <time>2022-04-05T12:30:14.676Z</time>
      </trkpt>
      <trkpt lat="44.68839" lon="4.38063">
        <ele>538.913264</ele>
        <time>2022-04-05T12:30:47.832Z</time>
      </trkpt>
      <trkpt lat="44.68839" lon="4.38063">
        <ele>538.913264</ele>
        <time>2022-04-05T12:30:49.268Z</time>
      </trkpt>
      <trkpt lat="44.6884" lon="4.3811">
        <ele>541.42442</ele>
        <time>2022-04-05T12:31:34.341Z</time>
      </trkpt>
      <trkpt lat="44.68839" lon="4.38131">
        <ele>542.521927</ele>
        <time>2022-04-05T12:32:06.714Z</time>
      </trkpt>
      <trkpt lat="44.6881" lon="4.38234">
        <ele>548.436862</ele>
        <time>2022-04-05T12:33:44.864Z</time>
      </trkpt>
      <trkpt lat="44.68781" lon="4.38269">
        <ele>551.294289</ele>
        <time>2022-04-05T12:34:25.018Z</time>
      </trkpt>
      <trkpt lat="44.68759" lon="4.38309">
        <ele>552.695145</ele>
        <time>2022-04-05T12:35:01.828Z</time>
      </trkpt>
      <trkpt lat="44.68759" lon="4.38309">
        <ele>552.695145</ele>
        <time>2022-04-05T12:35:02.141Z</time>
      </trkpt>
      <trkpt lat="44.68759" lon="4.38309">
        <ele>552.695145</ele>
        <time>2022-04-05T12:35:02.278Z</time>
      </trkpt>
      <trkpt lat="44.68788" lon="4.38343">
        <ele>553.577484</ele>
        <time>2022-04-05T12:35:39.656Z</time>
      </trkpt>
      <trkpt lat="44.68797" lon="4.3839">
        <ele>554.398737</ele>
        <time>2022-04-05T12:36:14.435Z</time>
      </trkpt>
      <trkpt lat="44.6883" lon="4.38399">
        <ele>555.210529</ele>
        <time>2022-04-05T12:36:48.790Z</time>
      </trkpt>
      <trkpt lat="44.68869" lon="4.38431">
        <ele>556.256387</ele>
        <time>2022-04-05T12:37:33.111Z</time>
      </trkpt>
      <trkpt lat="44.68906" lon="4.38446">
        <ele>560.324201</ele>
        <time>2022-04-05T12:38:12.613Z</time>
      </trkpt>
      <trkpt lat="44.68928" lon="4.38509">
        <ele>565.807876</ele>
        <time>2022-04-05T12:39:02.321Z</time>
      </trkpt>
      <trkpt lat="44.68952" lon="4.38538">
        <ele>569.33619</ele>
        <time>2022-04-05T12:39:34.263Z</time>
      </trkpt>
      <trkpt lat="44.69004" lon="4.38513">
        <ele>575.390468</ele>
        <time>2022-04-05T12:40:29.157Z</time>
      </trkpt>
      <trkpt lat="44.69041" lon="4.3854">
        <ele>581.592031</ele>
        <time>2022-04-05T12:41:11.271Z</time>
      </trkpt>
      <trkpt lat="44.69075" lon="4.38608">
        <ele>590.907843</ele>
        <time>2022-04-05T12:42:10.984Z</time>
      </trkpt>
      <trkpt lat="44.69125" lon="4.38653">
        <ele>600.357588</ele>
        <time>2022-04-05T12:43:11.678Z</time>
      </trkpt>
      <trkpt lat="44.6917" lon="4.3865">
        <ele>606.770814</ele>
        <time>2022-04-05T12:43:56.772Z</time>
      </trkpt>
      <trkpt lat="44.69204" lon="4.38611">
        <ele>612.041764</ele>
        <time>2022-04-05T12:44:41.330Z</time>
      </trkpt>
      <trkpt lat="44.69223" lon="4.3853">
        <ele>619.35309</ele>
        <time>2022-04-05T12:45:42.916Z</time>
      </trkpt>
      <trkpt lat="44.69273" lon="4.3848">
        <ele>626.359944</ele>
        <time>2022-04-05T12:46:44.493Z</time>
      </trkpt>
      <trkpt lat="44.6932" lon="4.38473">
        <ele>627.727031</ele>
        <time>2022-04-05T12:47:31.284Z</time>
      </trkpt>
      <trkpt lat="44.69366" lon="4.38466">
        <ele>629.090995</ele>
        <time>2022-04-05T12:48:18.039Z</time>
      </trkpt>
      <trkpt lat="44.69438" lon="4.38435">
        <ele>631.292493</ele>
        <time>2022-04-05T12:49:33.363Z</time>
      </trkpt>
      <trkpt lat="44.6951" lon="4.38403">
        <ele>629.256344</ele>
        <time>2022-04-05T12:50:48.685Z</time>
      </trkpt>
      <trkpt lat="44.69559" lon="4.38376">
        <ele>627.476562</ele>
        <time>2022-04-05T12:51:42.244Z</time>
      </trkpt>
      <trkpt lat="44.69608" lon="4.38344">
        <ele>625.71116</ele>
        <time>2022-04-05T12:52:35.361Z</time>
      </trkpt>
      <trkpt lat="44.69651" lon="4.38379">
        <ele>621.829171</ele>
        <time>2022-04-05T12:53:25.605Z</time>
      </trkpt>
      <trkpt lat="44.69672" lon="4.38424">
        <ele>618.679607</ele>
        <time>2022-04-05T12:54:03.731Z</time>
      </trkpt>
      <trkpt lat="44.69654" lon="4.38429">
        <ele>617.155354</ele>
        <time>2022-04-05T12:54:22.211Z</time>
      </trkpt>
      <trkpt lat="44.6967" lon="4.38527">
        <ele>611.245505</ele>
        <time>2022-04-05T12:55:47.051Z</time>
      </trkpt>
      <trkpt lat="44.69771" lon="4.38556">
        <ele>608.023976</ele>
        <time>2022-04-05T12:57:37.685Z</time>
      </trkpt>
      <trkpt lat="44.69844" lon="4.3863">
        <ele>605.565918</ele>
        <time>2022-04-05T12:59:09.908Z</time>
      </trkpt>
      <trkpt lat="44.70043" lon="4.38705">
        <ele>597.599703</ele>
        <time>2022-04-05T13:02:50.190Z</time>
      </trkpt>
      <trkpt lat="44.70062" lon="4.38769">
        <ele>593.418353</ele>
        <time>2022-04-05T13:03:47.062Z</time>
      </trkpt>
      <trkpt lat="44.7008" lon="4.38791">
        <ele>591.378149</ele>
        <time>2022-04-05T13:04:15.095Z</time>
      </trkpt>
      <trkpt lat="44.70164" lon="4.38818">
        <ele>583.827297</ele>
        <time>2022-04-05T13:06:01.281Z</time>
      </trkpt>
      <trkpt lat="44.70218" lon="4.38825">
        <ele>578.204181</ele>
        <time>2022-04-05T13:07:07.256Z</time>
      </trkpt>
      <trkpt lat="44.70225" lon="4.38833">
        <ele>577.189366</ele>
        <time>2022-04-05T13:07:17.596Z</time>
      </trkpt>
      <trkpt lat="44.70226" lon="4.38848">
        <ele>576.110739</ele>
        <time>2022-04-05T13:07:29.831Z</time>
      </trkpt>
      <trkpt lat="44.70238" lon="4.38871">
        <ele>574.008113</ele>
        <time>2022-04-05T13:07:52.913Z</time>
      </trkpt>
      <trkpt lat="44.70247" lon="4.38929">
        <ele>569.548771</ele>
        <time>2022-04-05T13:08:42.121Z</time>
      </trkpt>
      <trkpt lat="44.70227" lon="4.38912">
        <ele>567.128712</ele>
        <time>2022-04-05T13:09:10.577Z</time>
      </trkpt>
      <trkpt lat="44.70203" lon="4.38877">
        <ele>562.341546</ele>
        <time>2022-04-05T13:09:53.964Z</time>
      </trkpt>
      <trkpt lat="44.70197" lon="4.38877">
        <ele>561.393514</ele>
        <time>2022-04-05T13:10:02.378Z</time>
      </trkpt>
      <trkpt lat="44.70197" lon="4.38868">
        <ele>560.387669</ele>
        <time>2022-04-05T13:10:09.122Z</time>
      </trkpt>
      <trkpt lat="44.70139" lon="4.38891">
        <ele>551.310399</ele>
        <time>2022-04-05T13:11:10.230Z</time>
      </trkpt>
      <trkpt lat="44.70127" lon="4.38917">
        <ele>547.951549</ele>
        <time>2022-04-05T13:11:32.738Z</time>
      </trkpt>
      <trkpt lat="44.70103" lon="4.3895">
        <ele>543.050264</ele>
        <time>2022-04-05T13:12:05.633Z</time>
      </trkpt>
      <trkpt lat="44.70093" lon="4.38987">
        <ele>538.652287</ele>
        <time>2022-04-05T13:12:34.290Z</time>
      </trkpt>
      <trkpt lat="44.70113" lon="4.38986">
        <ele>534.33647</ele>
        <time>2022-04-05T13:12:54.895Z</time>
      </trkpt>
      <trkpt lat="44.70113" lon="4.38987">
        <ele>534.299881</ele>
        <time>2022-04-05T13:12:55.080Z</time>
      </trkpt>
      <trkpt lat="44.70121" lon="4.38992">
        <ele>532.526263</ele>
        <time>2022-04-05T13:13:11.640Z</time>
      </trkpt>
      <trkpt lat="44.70118" lon="4.39006">
        <ele>530.42949</ele>
        <time>2022-04-05T13:13:25.631Z</time>
      </trkpt>
      <trkpt lat="44.70109" lon="4.39012">
        <ele>528.30102</ele>
        <time>2022-04-05T13:13:38.532Z</time>
      </trkpt>
      <trkpt lat="44.70084" lon="4.39048">
        <ele>520.744641</ele>
        <time>2022-04-05T13:14:34.019Z</time>
      </trkpt>
      <trkpt lat="44.70089" lon="4.39062">
        <ele>518.364759</ele>
        <time>2022-04-05T13:14:51.942Z</time>
      </trkpt>
      <trkpt lat="44.7008" lon="4.39067">
        <ele>516.302658</ele>
        <time>2022-04-05T13:15:10.612Z</time>
      </trkpt>
      <trkpt lat="44.70067" lon="4.39098">
        <ele>510.921034</ele>
        <time>2022-04-05T13:15:47.863Z</time>
      </trkpt>
      <trkpt lat="44.70052" lon="4.39115">
        <ele>506.821536</ele>
        <time>2022-04-05T13:16:21.442Z</time>
      </trkpt>
      <trkpt lat="44.70064" lon="4.39116">
        <ele>504.146933</ele>
        <time>2022-04-05T13:16:38.783Z</time>
      </trkpt>
      <trkpt lat="44.70061" lon="4.39126">
        <ele>502.468853</ele>
        <time>2022-04-05T13:16:55.030Z</time>
      </trkpt>
      <trkpt lat="44.70038" lon="4.39132">
        <ele>497.919966</ele>
        <time>2022-04-05T13:17:29.852Z</time>
      </trkpt>
      <trkpt lat="44.69981" lon="4.39182">
        <ele>485.200209</ele>
        <time>2022-04-05T13:19:07.127Z</time>
      </trkpt>
      <trkpt lat="44.69952" lon="4.39189">
        <ele>479.712266</ele>
        <time>2022-04-05T13:19:47.049Z</time>
      </trkpt>
      <trkpt lat="44.69932" lon="4.39182">
        <ele>475.691195</ele>
        <time>2022-04-05T13:20:16.275Z</time>
      </trkpt>
      <trkpt lat="44.69918" lon="4.39172">
        <ele>472.799783</ele>
        <time>2022-04-05T13:20:36.384Z</time>
      </trkpt>
      <trkpt lat="44.69914" lon="4.39105">
        <ele>465.250629</ele>
        <time>2022-04-05T13:21:39.131Z</time>
      </trkpt>
      <trkpt lat="44.69902" lon="4.39099">
        <ele>463.87879</ele>
        <time>2022-04-05T13:21:54.988Z</time>
      </trkpt>
      <trkpt lat="44.69878" lon="4.39097">
        <ele>461.142639</ele>
        <time>2022-04-05T13:22:25.212Z</time>
      </trkpt>
      <trkpt lat="44.69863" lon="4.39103">
        <ele>459.34526</ele>
        <time>2022-04-05T13:22:44.640Z</time>
      </trkpt>
      <trkpt lat="44.69849" lon="4.3915">
        <ele>455.300413</ele>
        <time>2022-04-05T13:23:27.694Z</time>
      </trkpt>
      <trkpt lat="44.69836" lon="4.39163">
        <ele>453.520511</ele>
        <time>2022-04-05T13:23:45.612Z</time>
      </trkpt>
      <trkpt lat="44.69816" lon="4.39169">
        <ele>451.149941</ele>
        <time>2022-04-05T13:24:09.941Z</time>
      </trkpt>
      <trkpt lat="44.69786" lon="4.39202">
        <ele>446.851322</ele>
        <time>2022-04-05T13:24:55.094Z</time>
      </trkpt>
      <trkpt lat="44.69787" lon="4.3922">
        <ele>445.544015</ele>
        <time>2022-04-05T13:25:10.011Z</time>
      </trkpt>
      <trkpt lat="44.69776" lon="4.39227">
        <ele>444.295099</ele>
        <time>2022-04-05T13:25:24.567Z</time>
      </trkpt>
      <trkpt lat="44.69761" lon="4.39265">
        <ele>441.151823</ele>
        <time>2022-04-05T13:26:01.000Z</time>
      </trkpt>
      <trkpt lat="44.69732" lon="4.39298">
        <ele>437.259753</ele>
        <time>2022-04-05T13:26:47.124Z</time>
      </trkpt>
      <trkpt lat="44.69743" lon="4.39455">
        <ele>428.436687</ele>
        <time>2022-04-05T13:29:03.871Z</time>
      </trkpt>
      <trkpt lat="44.69731" lon="4.39492">
        <ele>428.436687</ele>
        <time>2022-04-05T13:29:36.338Z</time>
      </trkpt>
      <trkpt lat="44.69738" lon="4.3949">
        <ele>428.436687</ele>
        <time>2022-04-05T13:29:43.923Z</time>
      </trkpt>
      <trkpt lat="44.69711" lon="4.39557">
        <ele>428.436687</ele>
        <time>2022-04-05T13:30:46.465Z</time>
      </trkpt>
      <trkpt lat="44.69713" lon="4.3955">
        <ele>428.436687</ele>
        <time>2022-04-05T13:30:52.275Z</time>
      </trkpt>
      <trkpt lat="44.69719" lon="4.39595">
        <ele>428.436687</ele>
        <time>2022-04-05T13:31:25.054Z</time>
      </trkpt>
      <trkpt lat="44.69757" lon="4.39573">
        <ele>428.436687</ele>
        <time>2022-04-05T13:32:05.793Z</time>
      </trkpt>
      <trkpt lat="44.69782" lon="4.39521">
        <ele>428.436687</ele>
        <time>2022-04-05T13:32:50.515Z</time>
      </trkpt>
    </trkseg>
  </trk>
</gpx>